Luverne, MN

6:23 PM CDT on May 21, 2018 (GMT -0500)
Luverne

Weather History for KLYV - January, 2012

Change the Weather History Date:

Monday, January 16, 2012

  Actual Average (KPQN) Record (KPQN)
Temperature  
Mean Temperature 25 °F -  
Max Temperature 33 °F 21 °F 39 °F (2004)
Min Temperature 17 °F 6 °F -14 °F (2009)
Degree Days  
Heating Degree Days 40    
Moisture  
Dew Point 15 °F    
Average Humidity 68    
Maximum Humidity 80    
Minimum Humidity 51    
Precipitation  
Precipitation 0.00 in - - ()
Sea Level Pressure  
Sea Level Pressure 29.82 in    
Wind  
Wind Speed 13 mph (North)    
Max Wind Speed 20 mph    
Max Gust Speed 29 mph    
Visibility 10 miles    
Events      
Averages and records for this station are not official NWS values.
T = Trace of Precipitation, MM = Missing Value Source: NWS Daily Summary

Daily Weather History Graph

Daily Weather History Graph

Search for Another Location

Airport or City:

Astronomy

Jan. 16, 2012 Rise Set
Actual Time 7:54 AM CST 5:14 PM CST
Civil Twilight 7:23 AM CST 5:46 PM CST
Nautical Twilight 6:47 AM CST 6:21 PM CST
Astronomical Twilight 6:13 AM CST 6:56 PM CST
Moon 1:01 AM CST (1/16) 11:31 AM CST (1/16)
Length of Visible Light 10h 23m
Length of Day
9h 19m
Last Quarter, 46% of the Moon is Illuminated
Jan 16
Last Quarter
Jan 23
New
Jan 30
First Quarter
Feb 7
Full
Feb 14
Last Quarter

Hourly Weather History & Observations

Time (CST) Temp. Windchill Dew Point Humidity Pressure Visibility Wind Dir Wind Speed Gust Speed Precip Events Conditions
12:16 AM 33.8 °F 23.5 °F 24.8 °F 70% 29.68 in 10.0 mi North 16.1 mph - N/A   Clear
12:36 AM 33.8 °F 25.3 °F 24.8 °F 70% 29.69 in 10.0 mi North 11.5 mph - N/A   Clear
12:56 AM 33.8 °F 24.3 °F 24.8 °F 70% 29.68 in 10.0 mi North 13.8 mph 19.6 mph N/A   Clear
1:16 AM 33.8 °F 26.4 °F 23.0 °F 65% 29.71 in 10.0 mi North 9.2 mph - N/A   Clear
1:36 AM 33.8 °F 24.3 °F 24.8 °F 70% 29.72 in 10.0 mi North 13.8 mph - N/A   Clear
1:56 AM 33.8 °F 26.4 °F 24.8 °F 70% 29.74 in 10.0 mi NNW 9.2 mph 18.4 mph N/A   Clear
2:16 AM 32.0 °F 22.1 °F 23.0 °F 69% 29.75 in 10.0 mi North 13.8 mph - N/A   Clear
2:36 AM 32.0 °F 23.6 °F 24.8 °F 75% 29.75 in 10.0 mi North 10.4 mph 17.3 mph N/A   Clear
2:56 AM 32.0 °F 24.8 °F 24.8 °F 75% 29.76 in 10.0 mi North 8.1 mph - N/A   Clear
3:16 AM 32.0 °F 21.2 °F 26.6 °F 80% 29.75 in 10.0 mi North 16.1 mph 23.0 mph N/A   Clear
3:36 AM 32.0 °F 22.5 °F 26.6 °F 80% 29.75 in 10.0 mi North 12.7 mph 21.9 mph N/A   Clear
3:56 AM 32.0 °F 24.2 °F 26.6 °F 80% 29.76 in 10.0 mi North 9.2 mph 21.9 mph N/A   Scattered Clouds
4:16 AM 32.0 °F 24.2 °F 26.6 °F 80% 29.77 in 10.0 mi North 9.2 mph - N/A   Overcast
4:36 AM 30.2 °F 18.9 °F 24.8 °F 80% 29.77 in 10.0 mi North 16.1 mph 20.7 mph N/A   Mostly Cloudy
4:56 AM 30.2 °F 22.6 °F 23.0 °F 75% 29.78 in 10.0 mi North 8.1 mph 17.3 mph N/A   Scattered Clouds
5:16 AM 28.4 °F 18.5 °F 23.0 °F 80% 29.78 in 10.0 mi NNE 11.5 mph - N/A   Scattered Clouds
5:36 AM 28.4 °F 19.1 °F 19.4 °F 69% 29.79 in 10.0 mi NNE 10.4 mph - N/A   Clear
5:56 AM 26.6 °F 15.7 °F 17.6 °F 69% 29.80 in 10.0 mi North 12.7 mph 16.1 mph N/A   Clear
6:15 AM 24.8 °F 12.9 °F 17.6 °F 74% 29.80 in 10.0 mi North 13.8 mph 21.9 mph N/A   Clear
6:36 AM 23.0 °F 13.9 °F 17.6 °F 80% 29.82 in 10.0 mi NNE 8.1 mph - N/A   Clear
6:56 AM 23.0 °F 11.7 °F 15.8 °F 74% 29.81 in 10.0 mi NNE 11.5 mph 19.6 mph N/A   Clear
7:16 AM 21.2 °F 8.3 °F 15.8 °F 80% 29.82 in 10.0 mi NNE 13.8 mph 18.4 mph N/A   Clear
7:36 AM 21.2 °F 9.5 °F 14.0 °F 74% 29.82 in 10.0 mi North 11.5 mph 18.4 mph N/A   Clear
7:56 AM 19.4 °F 8.6 °F 14.0 °F 80% 29.83 in 10.0 mi North 9.2 mph 16.1 mph N/A   Clear
8:16 AM 19.4 °F 6.6 °F 12.2 °F 74% 29.84 in 10.0 mi North 12.7 mph 19.6 mph N/A   Clear
8:36 AM 19.4 °F 5.0 °F 12.2 °F 74% 29.83 in 10.0 mi NNE 16.1 mph 20.7 mph N/A   Clear
8:56 AM 19.4 °F 6.6 °F 12.2 °F 74% 29.84 in 10.0 mi North 12.7 mph 18.4 mph N/A   Clear
9:16 AM 19.4 °F 5.0 °F 12.2 °F 74% 29.85 in 10.0 mi North 16.1 mph 21.9 mph N/A   Clear
9:36 AM 19.4 °F 7.2 °F 12.2 °F 74% 29.85 in 10.0 mi North 11.5 mph 20.7 mph N/A   Clear
9:56 AM 19.4 °F 6.0 °F 10.4 °F 68% 29.86 in 10.0 mi North 13.8 mph 21.9 mph N/A   Clear
10:16 AM 19.4 °F 5.0 °F 10.4 °F 68% 29.86 in 10.0 mi NNE 16.1 mph 24.2 mph N/A   Clear
10:36 AM 19.4 °F 5.5 °F 10.4 °F 68% 29.86 in 10.0 mi NNE 15.0 mph 21.9 mph N/A   Clear
10:56 AM 19.4 °F 6.0 °F 10.4 °F 68% 29.85 in 10.0 mi NNE 13.8 mph 24.2 mph N/A   Clear
11:16 AM 21.2 °F 8.3 °F 10.4 °F 63% 29.85 in 10.0 mi NNE 13.8 mph 23.0 mph N/A   Clear
11:36 AM 21.2 °F 7.3 °F 10.4 °F 63% 29.85 in 10.0 mi North 16.1 mph 25.3 mph N/A   Clear
11:56 AM 21.2 °F 8.3 °F 10.4 °F 63% 29.86 in 10.0 mi North 13.8 mph - N/A   Clear
12:16 PM 23.0 °F 9.6 °F 10.4 °F 59% 29.85 in 10.0 mi North 16.1 mph 19.6 mph N/A   Clear
12:36 PM 24.8 °F 12.9 °F 10.4 °F 54% 29.85 in 10.0 mi North 13.8 mph 18.4 mph N/A   Clear
12:56 PM 24.8 °F 12.4 °F 10.4 °F 54% 29.84 in 10.0 mi North 15.0 mph 18.4 mph N/A   Clear
1:16 PM 26.6 °F 17.5 °F 10.4 °F 51% 29.83 in 10.0 mi NNE 9.2 mph 19.6 mph N/A   Clear
1:36 PM 26.6 °F 15.7 °F 10.4 °F 51% 29.85 in 10.0 mi North 12.7 mph - N/A   Clear
1:56 PM 26.6 °F 15.2 °F 10.4 °F 51% 29.83 in 10.0 mi North 13.8 mph 19.6 mph N/A   Clear
2:16 PM 26.6 °F 13.8 °F 10.4 °F 51% 29.83 in 10.0 mi North 17.3 mph - N/A   Clear
2:36 PM 24.8 °F 11.9 °F 10.4 °F 54% 29.84 in 10.0 mi North 16.1 mph 21.9 mph N/A   Clear
2:56 PM 23.0 °F 10.1 °F 10.4 °F 59% 29.84 in 10.0 mi NNE 15.0 mph 21.9 mph N/A   Clear
3:16 PM 23.0 °F 10.1 °F 10.4 °F 59% 29.84 in 10.0 mi North 15.0 mph - N/A   Clear
3:36 PM 23.0 °F 11.1 °F 10.4 °F 59% 29.85 in 10.0 mi North 12.7 mph 20.7 mph N/A   Clear
3:56 PM 23.0 °F 10.6 °F 10.4 °F 59% 29.87 in 10.0 mi North 13.8 mph 20.7 mph N/A   Clear
4:16 PM 21.2 °F 7.8 °F 10.4 °F 63% 29.86 in 10.0 mi North 15.0 mph 20.7 mph N/A   Clear
4:36 PM 21.2 °F 10.1 °F 10.4 °F 63% 29.87 in 10.0 mi North 10.4 mph 21.9 mph N/A   Clear
4:56 PM 21.2 °F 8.9 °F 10.4 °F 63% 29.87 in 10.0 mi North 12.7 mph 23.0 mph N/A   Clear
5:16 PM 19.4 °F 6.0 °F 10.4 °F 68% 29.88 in 10.0 mi North 13.8 mph 23.0 mph N/A   Clear
5:36 PM 19.4 °F 5.0 °F 10.4 °F 68% 29.90 in 10.0 mi North 16.1 mph 25.3 mph N/A   Clear
5:56 PM 19.4 °F 8.6 °F 10.4 °F 68% 29.91 in 10.0 mi NNE 9.2 mph 19.6 mph N/A   Clear
6:36 PM 17.6 °F 2.2 °F 10.4 °F 73% 29.90 in 10.0 mi North 17.3 mph 21.9 mph N/A   Clear
6:56 PM 17.6 °F 3.2 °F 8.6 °F 68% 29.90 in 10.0 mi NNE 15.0 mph 26.5 mph N/A   Clear
7:16 PM 17.6 °F 2.7 °F 8.6 °F 68% 29.88 in 10.0 mi NNE 16.1 mph 26.5 mph N/A   Clear
7:36 PM 17.6 °F 1.3 °F 8.6 °F 68% 29.89 in 10.0 mi NNE 19.6 mph 28.8 mph N/A   Clear
7:55 PM 17.6 °F 1.3 °F 8.6 °F 68% 29.90 in 10.0 mi NNE 19.6 mph 26.5 mph N/A   Clear
8:16 PM 17.6 °F 3.7 °F 8.6 °F 68% 29.91 in 10.0 mi North 13.8 mph 27.6 mph N/A   Scattered Clouds
8:35 PM 17.6 °F 1.3 °F 8.6 °F 68% 29.92 in 10.0 mi North 19.6 mph 27.6 mph N/A   Mostly Cloudy
8:56 PM 17.6 °F 2.2 °F 8.6 °F 68% 29.94 in 10.0 mi North 17.3 mph 27.6 mph N/A   Overcast
9:16 PM 17.6 °F 4.3 °F 10.4 °F 73% 29.95 in 10.0 mi North 12.7 mph 19.6 mph N/A   Overcast
9:36 PM 17.6 °F 5.0 °F 10.4 °F 73% 29.96 in 10.0 mi North 11.5 mph 21.9 mph N/A   Overcast
9:56 PM 17.6 °F 3.2 °F 8.6 °F 68% 29.96 in 10.0 mi North 15.0 mph 27.6 mph N/A   Overcast
10:16 PM 15.8 °F 0.3 °F 8.6 °F 73% 29.97 in 10.0 mi North 16.1 mph 26.5 mph N/A   Overcast
10:35 PM 14.0 °F -0.8 °F 8.6 °F 79% 29.97 in 7.0 mi North 13.8 mph - N/A   Overcast
10:56 PM 14.0 °F -1.4 °F 8.6 °F 79% 29.97 in 4.0 mi North 15.0 mph 25.3 mph N/A Snow Light Snow
11:16 PM 14.0 °F -0.8 °F 8.6 °F 79% 29.98 in 2.5 mi North 13.8 mph 25.3 mph N/A Snow Light Snow
11:36 PM 14.0 °F -2.0 °F 8.6 °F 79% 29.99 in 1.8 mi North 16.1 mph 26.5 mph N/A Snow Light Snow